Fish Creek, WI

10:22 AM CST on December 04, 2016 (GMT -0600)
Door County, Wisconsin, Spring Road | | Change Station
Active Advisory: Winter Weather Advisory

Elev 627 ft 45.12 °N, 87.23 °W | Updated 3 seconds ago

Light Rain
Light Rain
34.2 °F
Feels Like 34 °F
N
0.0
Wind Variable Wind from SW
Gusts 0.0 mph

Today
High -- | Low -- °F
--% Chance of Precip.
Yesterday
High -- | Low -- °F
Precip. -- in
Pressure 30.16 in
Visibility 10.0 miles
Clouds Overcast 2000 ft
Windchill 34 °F
Dew Point 21 °F
Humidity 59%
Rainfall 0.00 in
Snow Depth Not available.
7:11 AM 4:07 PM
Waxing Crescent, 23% visible
METAR KMNM 041556Z AUTO 21008KT 10SM -RA OVC020 00/M03 A3010 RMK AO2 UPB33E44RAB50 SLP213 P0000 T00001033 FZRANO
Pressure 30.16 in
Visibility 10.0 miles
Clouds Overcast 2000 ft
Windchill 34 °F
Dew Point 21 °F
Humidity 59%
Rainfall 0.00 in
Snow Depth Not available.
7:11 AM 4:07 PM
Waxing Crescent, 23% visible
METAR KMNM 041556Z AUTO 21008KT 10SM -RA OVC020 00/M03 A3010 RMK AO2 UPB33E44RAB50 SLP213 P0000 T00001033 FZRANO

10-Day Weather Forecast

Almanac

Astronomy

Dec. 04, 2016 Rise Set
Actual Time
Civil Twilight
Nautical Twilight
Astronomical Twilight
Moon
Length of Visible Light
Length of Day
Tomorrow will be .
, % of the Moon is Illuminated

Today's Extremes

State Highs State Lows

Community

WunderPhotos

Upload Photos

1,955,617 photos uploaded!

WunderBlog® & News

Nearby

Air Quality

  Air Quality AQ Index Pollutant
Not available.

Snow Depth

Station Depth Elevation

Earthquake Activity

City Distance Mag. Time & Date
Minimum magnitude displayed is 2.5.

Coastal Water Temperatures

Place Temperature

Stations

Nearby Weather Stations

Station Location Temp. Windchill Dew Point Humidity Wind Precip. Elev Updated Type
                   

Watches & Warnings

Winter Weather Advisory
Issued: 10:14 AM CST Dec. 4, 2016 – National Weather Service

... Winter Weather Advisory in effect until 9 PM CST this
evening...

The National Weather Service in Green Bay has issued a Winter
Weather Advisory for snow... which is in effect until 9 PM CST
this evening.

* Snow is expected to arrive late in the morning and end this
evening. Heaviest snowfall should be from mid-afternoon into
early this evening.

* Snow accumulations should be in the 2 to 4 inch range at most
locations... but amounts could be lower near the Lake Michigan
shoreline.

* The snow will cause roads to become snow covered and
slippery... making travel hazardous. Air travel delays are
also possible.

Precautionary/preparedness actions...

A Winter Weather Advisory for snow means periods of snow will
cause primarily travel difficulties. Be prepared for snow covered
roads and limited visibilities... and use extra caution while
driving. The latest Wisconsin Road conditions can be obtained by
calling 511.